sensor_id;sensor_type;location;lat;lon;timestamp;pressure;altitude;pressure_sealevel;temperature;humidity
56518;BME280;42419;48.760;2.322;2022-10-22T00:01:36;100229.16;;;22.63;49.01
56518;BME280;42419;48.760;2.322;2022-10-22T00:04:03;100253.03;;;22.68;48.76
56518;BME280;42419;48.760;2.322;2022-10-22T00:06:28;100255.72;;;22.68;48.63
56518;BME280;42419;48.760;2.322;2022-10-22T00:08:54;100259.28;;;22.68;48.69
56518;BME280;42419;48.760;2.322;2022-10-22T00:11:19;100256.59;;;22.68;48.86
56518;BME280;42419;48.760;2.322;2022-10-22T00:13:46;100247.25;;;22.60;48.53
56518;BME280;42419;48.760;2.322;2022-10-22T00:16:12;100262.03;;;22.67;48.83
56518;BME280;42419;48.760;2.322;2022-10-22T00:18:38;100260.22;;;22.67;48.69
56518;BME280;42419;48.760;2.322;2022-10-22T00:21:04;100265.69;;;22.66;48.82
56518;BME280;42419;48.760;2.322;2022-10-22T00:23:30;100274.63;;;22.66;48.87
56518;BME280;42419;48.760;2.322;2022-10-22T00:25:55;100260.75;;;22.58;48.69
56518;BME280;42419;48.760;2.322;2022-10-22T00:28:21;100277.31;;;22.66;48.54
56518;BME280;42419;48.760;2.322;2022-10-22T00:30:46;100288.88;;;22.67;48.85
56518;BME280;42419;48.760;2.322;2022-10-22T00:33:12;100277.44;;;22.63;48.71
56518;BME280;42419;48.760;2.322;2022-10-22T00:35:37;100277.31;;;22.66;48.77
56518;BME280;42419;48.760;2.322;2022-10-22T00:38:05;100283.63;;;22.65;48.41
56518;BME280;42419;48.760;2.322;2022-10-22T00:40:31;100281.88;;;22.64;48.72
56518;BME280;42419;48.760;2.322;2022-10-22T00:42:56;100285.50;;;22.63;48.65
56518;BME280;42419;48.760;2.322;2022-10-22T00:45:26;100290.78;;;22.65;48.33
56518;BME280;42419;48.760;2.322;2022-10-22T00:52:59;100304.41;;;22.62;48.57
56518;BME280;42419;48.760;2.322;2022-10-22T00:55:26;100304.28;;;22.63;48.61
56518;BME280;42419;48.760;2.322;2022-10-22T00:57:53;100304.28;;;22.63;48.43
56518;BME280;42419;48.760;2.322;2022-10-22T01:00:20;100312.44;;;22.62;48.49
56518;BME280;42419;48.760;2.322;2022-10-22T01:02:47;100323.06;;;22.63;48.66
56518;BME280;42419;48.760;2.322;2022-10-22T01:05:13;100323.34;;;22.59;48.61
56518;BME280;42419;48.760;2.322;2022-10-22T01:07:50;100325.75;;;22.63;48.70
56518;BME280;42419;48.760;2.322;2022-10-22T01:10:27;100330.25;;;22.63;48.71
56518;BME280;42419;48.760;2.322;2022-10-22T01:16:09;100338.41;;;22.61;48.76
56518;BME280;42419;48.760;2.322;2022-10-22T01:18:48;100342.91;;;22.61;48.59
56518;BME280;42419;48.760;2.322;2022-10-22T01:21:25;100348.34;;;22.59;48.86
56518;BME280;42419;48.760;2.322;2022-10-22T01:24:10;100347.41;;;22.60;48.68
56518;BME280;42419;48.760;2.322;2022-10-22T01:29:24;100356.41;;;22.59;48.71
56518;BME280;42419;48.760;2.322;2022-10-22T01:31:55;100342.38;;;22.54;49.12
56518;BME280;42419;48.760;2.322;2022-10-22T01:34:23;100359.09;;;22.59;49.03
56518;BME280;42419;48.760;2.322;2022-10-22T01:36:50;100360.81;;;22.60;49.05
56518;BME280;42419;48.760;2.322;2022-10-22T01:39:18;100362.72;;;22.58;48.77
56518;BME280;42419;48.760;2.322;2022-10-22T01:41:44;100366.13;;;22.62;48.84
56518;BME280;42419;48.760;2.322;2022-10-22T01:44:33;100364.38;;;22.61;48.80
56518;BME280;42419;48.760;2.322;2022-10-22T01:55:29;100360.91;;;22.59;49.16
56518;BME280;42419;48.760;2.322;2022-10-22T01:58:06;100348.75;;;22.52;48.67
56518;BME280;42419;48.760;2.322;2022-10-22T02:00:43;100361.00;;;22.57;48.90
56518;BME280;42419;48.760;2.322;2022-10-22T02:03:18;100362.72;;;22.58;48.70
56518;BME280;42419;48.760;2.322;2022-10-22T02:05:56;100336.53;;;22.46;48.60
56518;BME280;42419;48.760;2.322;2022-10-22T02:08:27;100359.19;;;22.58;48.72
56518;BME280;42419;48.760;2.322;2022-10-22T02:10:54;100365.41;;;22.58;48.70
56518;BME280;42419;48.760;2.322;2022-10-22T02:13:24;100370.06;;;22.55;49.05
56518;BME280;42419;48.760;2.322;2022-10-22T02:15:51;100361.78;;;22.59;49.15
56518;BME280;42419;48.760;2.322;2022-10-22T02:18:19;100371.63;;;22.59;48.79
56518;BME280;42419;48.760;2.322;2022-10-22T02:20:46;100370.88;;;22.57;49.07
56518;BME280;42419;48.760;2.322;2022-10-22T02:23:13;100375.19;;;22.59;49.05
56518;BME280;42419;48.760;2.322;2022-10-22T02:25:40;100382.28;;;22.60;48.92
56518;BME280;42419;48.760;2.322;2022-10-22T02:28:22;100389.53;;;22.58;48.90
56518;BME280;42419;48.760;2.322;2022-10-22T02:30:52;100383.34;;;22.58;48.74
56518;BME280;42419;48.760;2.322;2022-10-22T02:33:27;100372.91;;;22.52;48.75
56518;BME280;42419;48.760;2.322;2022-10-22T02:35:54;100382.38;;;22.59;49.00
56518;BME280;42419;48.760;2.322;2022-10-22T02:38:22;100380.66;;;22.58;48.86
56518;BME280;42419;48.760;2.322;2022-10-22T02:40:49;100383.34;;;22.58;48.61
56518;BME280;42419;48.760;2.322;2022-10-22T02:43:16;100386.03;;;22.58;48.82
56518;BME280;42419;48.760;2.322;2022-10-22T02:45:42;100387.13;;;22.54;48.91
56518;BME280;42419;48.760;2.322;2022-10-22T02:48:08;100394.91;;;22.58;48.51
56518;BME280;42419;48.760;2.322;2022-10-22T02:50:33;100398.56;;;22.57;48.74
56518;BME280;42419;48.760;2.322;2022-10-22T02:52:58;100408.34;;;22.58;48.73
56518;BME280;42419;48.760;2.322;2022-10-22T02:55:23;100401.25;;;22.57;48.83
56518;BME280;42419;48.760;2.322;2022-10-22T02:57:49;100396.19;;;22.51;48.76
56518;BME280;42419;48.760;2.322;2022-10-22T03:00:14;100398.00;;;22.51;48.48
56518;BME280;42419;48.760;2.322;2022-10-22T03:02:40;100408.34;;;22.58;48.84
56518;BME280;42419;48.760;2.322;2022-10-22T03:05:05;100420.03;;;22.57;48.66
56518;BME280;42419;48.760;2.322;2022-10-22T03:07:31;100420.97;;;22.56;48.53
56518;BME280;42419;48.760;2.322;2022-10-22T03:09:57;100420.97;;;22.56;48.93
56518;BME280;42419;48.760;2.322;2022-10-22T03:12:22;100411.66;;;22.46;48.70
56518;BME280;42419;48.760;2.322;2022-10-22T03:14:47;100419.25;;;22.55;48.29
56518;BME280;42419;48.760;2.322;2022-10-22T03:17:13;100410.53;;;22.50;48.79
56518;BME280;42419;48.760;2.322;2022-10-22T03:19:38;100424.59;;;22.55;48.51
56518;BME280;42419;48.760;2.322;2022-10-22T03:22:09;100435.34;;;22.55;48.80
56518;BME280;42419;48.760;2.322;2022-10-22T03:24:38;100417.81;;;22.48;48.28
56518;BME280;42419;48.760;2.322;2022-10-22T03:27:04;100438.91;;;22.56;48.59
56518;BME280;42419;48.760;2.322;2022-10-22T03:29:31;100437.16;;;22.55;48.43
56518;BME280;42419;48.760;2.322;2022-10-22T03:31:57;100443.38;;;22.55;48.59
56518;BME280;42419;48.760;2.322;2022-10-22T03:34:22;100444.34;;;22.54;48.32
56518;BME280;42419;48.760;2.322;2022-10-22T03:36:48;100447.00;;;22.54;48.37
56518;BME280;42419;48.760;2.322;2022-10-22T03:39:15;100452.38;;;22.54;48.47
56518;BME280;42419;48.760;2.322;2022-10-22T03:41:42;100454.19;;;22.54;48.42
56518;BME280;42419;48.760;2.322;2022-10-22T03:44:08;100447.00;;;22.54;48.72
56518;BME280;42419;48.760;2.322;2022-10-22T03:46:34;100453.31;;;22.53;48.21
56518;BME280;42419;48.760;2.322;2022-10-22T03:48:59;100447.09;;;22.53;48.41
56518;BME280;42419;48.760;2.322;2022-10-22T03:51:28;100447.97;;;22.53;48.49
56518;BME280;42419;48.760;2.322;2022-10-22T03:53:54;100453.31;;;22.53;48.68
56518;BME280;42419;48.760;2.322;2022-10-22T03:56:19;100451.50;;;22.54;48.31
56518;BME280;42419;48.760;2.322;2022-10-22T03:58:44;100450.63;;;22.53;48.20
56518;BME280;42419;48.760;2.322;2022-10-22T04:01:11;100459.63;;;22.52;48.39
56518;BME280;42419;48.760;2.322;2022-10-22T04:03:37;100465.00;;;22.52;48.49
56518;BME280;42419;48.760;2.322;2022-10-22T04:06:05;100462.63;;;22.46;48.66
56518;BME280;42419;48.760;2.322;2022-10-22T04:08:31;100462.31;;;22.52;48.26
56518;BME280;42419;48.760;2.322;2022-10-22T04:10:57;100470.28;;;22.54;48.31
56518;BME280;42419;48.760;2.322;2022-10-22T04:13:22;100473.06;;;22.52;48.27
56518;BME280;42419;48.760;2.322;2022-10-22T04:15:47;100475.72;;;22.52;48.40
56518;BME280;42419;48.760;2.322;2022-10-22T04:18:13;100477.53;;;22.52;48.29
56518;BME280;42419;48.760;2.322;2022-10-22T04:20:40;100471.47;;;22.48;48.12
56518;BME280;42419;48.760;2.322;2022-10-22T04:23:05;100478.41;;;22.52;48.59
56518;BME280;42419;48.760;2.322;2022-10-22T04:25:31;100474.00;;;22.51;48.60
56518;BME280;42419;48.760;2.322;2022-10-22T04:27:56;100475.72;;;22.52;48.18
56518;BME280;42419;48.760;2.322;2022-10-22T04:30:21;100482.03;;;22.51;48.54
56518;BME280;42419;48.760;2.322;2022-10-22T04:32:47;100473.38;;;22.46;48.09
56518;BME280;42419;48.760;2.322;2022-10-22T04:35:12;100481.16;;;22.51;48.35
56518;BME280;42419;48.760;2.322;2022-10-22T04:37:37;100486.53;;;22.51;48.31
56518;BME280;42419;48.760;2.322;2022-10-22T04:40:03;100485.84;;;22.47;48.40
56518;BME280;42419;48.760;2.322;2022-10-22T04:42:28;100491.03;;;22.50;48.22
56518;BME280;42419;48.760;2.322;2022-10-22T04:44:54;100491.91;;;22.51;48.32
56518;BME280;42419;48.760;2.322;2022-10-22T04:47:19;100493.72;;;22.50;48.22
56518;BME280;42419;48.760;2.322;2022-10-22T04:49:44;100499.94;;;22.51;48.28
56518;BME280;42419;48.760;2.322;2022-10-22T04:52:10;100488.44;;;22.49;48.28
56518;BME280;42419;48.760;2.322;2022-10-22T04:54:36;100484.16;;;22.45;48.53
56518;BME280;42419;48.760;2.322;2022-10-22T04:57:02;100489.28;;;22.49;48.32
56518;BME280;42419;48.760;2.322;2022-10-22T04:59:27;100491.13;;;22.49;48.28
56518;BME280;42419;48.760;2.322;2022-10-22T05:01:52;100502.69;;;22.49;48.29
56518;BME280;42419;48.760;2.322;2022-10-22T05:04:18;100497.34;;;22.49;48.45
56518;BME280;42419;48.760;2.322;2022-10-22T05:06:44;100501.88;;;22.49;48.49
56518;BME280;42419;48.760;2.322;2022-10-22T05:09:13;100495.63;;;22.48;48.24
56518;BME280;42419;48.760;2.322;2022-10-22T05:11:40;100506.25;;;22.50;48.28
56518;BME280;42419;48.760;2.322;2022-10-22T05:14:07;100508.06;;;22.49;48.37
56518;BME280;42419;48.760;2.322;2022-10-22T05:16:34;100504.56;;;22.49;48.25
56518;BME280;42419;48.760;2.322;2022-10-22T05:19:01;100515.41;;;22.46;48.43
56518;BME280;42419;48.760;2.322;2022-10-22T05:21:27;100514.31;;;22.50;48.41
56518;BME280;42419;48.760;2.322;2022-10-22T05:23:53;100526.84;;;22.49;48.04
56518;BME280;42419;48.760;2.322;2022-10-22T05:26:20;100516.13;;;22.49;48.03
56518;BME280;42419;48.760;2.322;2022-10-22T05:28:47;100512.59;;;22.49;48.16
56518;BME280;42419;48.760;2.322;2022-10-22T05:31:13;100510.22;;;22.42;48.22
56518;BME280;42419;48.760;2.322;2022-10-22T05:33:40;100526.00;;;22.49;48.18
56518;BME280;42419;48.760;2.322;2022-10-22T05:36:07;100528.78;;;22.47;48.21
56518;BME280;42419;48.760;2.322;2022-10-22T05:38:34;100507.63;;;22.41;48.14
56518;BME280;42419;48.760;2.322;2022-10-22T05:41:00;100529.63;;;22.48;48.26
56518;BME280;42419;48.760;2.322;2022-10-22T05:43:26;100523.41;;;22.47;48.19
56518;BME280;42419;48.760;2.322;2022-10-22T05:45:51;100522.59;;;22.45;48.35
56518;BME280;42419;48.760;2.322;2022-10-22T05:48:16;100518.09;;;22.46;48.41
56518;BME280;42419;48.760;2.322;2022-10-22T05:50:42;100529.72;;;22.46;48.29
56518;BME280;42419;48.760;2.322;2022-10-22T05:53:10;100517.34;;;22.44;47.85
56518;BME280;42419;48.760;2.322;2022-10-22T05:55:35;100525.28;;;22.45;48.20
56518;BME280;42419;48.760;2.322;2022-10-22T05:58:02;100500.41;;;22.26;48.08
56518;BME280;42419;48.760;2.322;2022-10-22T06:00:28;100533.34;;;22.45;48.01
56518;BME280;42419;48.760;2.322;2022-10-22T06:02:53;100533.34;;;22.45;48.14
56518;BME280;42419;48.760;2.322;2022-10-22T06:05:18;100530.66;;;22.45;48.39
56518;BME280;42419;48.760;2.322;2022-10-22T06:07:44;100536.00;;;22.45;48.22
56518;BME280;42419;48.760;2.322;2022-10-22T06:10:13;100536.00;;;22.45;48.11
56518;BME280;42419;48.760;2.322;2022-10-22T06:12:39;100529.00;;;22.42;48.22
56518;BME280;42419;48.760;2.322;2022-10-22T06:15:05;100537.00;;;22.44;48.37
56518;BME280;42419;48.760;2.322;2022-10-22T06:17:31;100550.41;;;22.44;48.34
56518;BME280;42419;48.760;2.322;2022-10-22T06:19:56;100551.41;;;22.41;47.94
56518;BME280;42419;48.760;2.322;2022-10-22T06:22:21;100549.53;;;22.44;48.21
56518;BME280;42419;48.760;2.322;2022-10-22T06:24:47;100550.41;;;22.44;48.24
56518;BME280;42419;48.760;2.322;2022-10-22T06:27:12;100574.53;;;22.44;48.00
56518;BME280;42419;48.760;2.322;2022-10-22T06:29:37;100571.88;;;22.44;48.25
56518;BME280;42419;48.760;2.322;2022-10-22T06:32:02;100563.81;;;22.44;47.81
56518;BME280;42419;48.760;2.322;2022-10-22T06:34:28;100564.06;;;22.39;48.26
56518;BME280;42419;48.760;2.322;2022-10-22T06:36:53;100570.88;;;22.45;48.41
56518;BME280;42419;48.760;2.322;2022-10-22T06:39:18;100567.34;;;22.45;47.97
56518;BME280;42419;48.760;2.322;2022-10-22T06:41:44;100571.88;;;22.44;48.28
56518;BME280;42419;48.760;2.322;2022-10-22T06:44:13;100571.75;;;22.46;48.18
56518;BME280;42419;48.760;2.322;2022-10-22T06:46:40;100578.94;;;22.45;48.11
56518;BME280;42419;48.760;2.322;2022-10-22T06:49:05;100586.13;;;22.45;47.93
56518;BME280;42419;48.760;2.322;2022-10-22T06:51:30;100595.91;;;22.46;48.12
56518;BME280;42419;48.760;2.322;2022-10-22T06:53:57;100592.28;;;22.47;48.03
56518;BME280;42419;48.760;2.322;2022-10-22T06:56:24;100592.34;;;22.45;48.01
56518;BME280;42419;48.760;2.322;2022-10-22T06:58:52;100593.47;;;22.41;47.97
56518;BME280;42419;48.760;2.322;2022-10-22T07:01:20;100601.28;;;22.46;47.90
56518;BME280;42419;48.760;2.322;2022-10-22T07:03:45;100607.50;;;22.46;47.96
56518;BME280;42419;48.760;2.322;2022-10-22T07:06:12;100607.50;;;22.46;48.33
56518;BME280;42419;48.760;2.322;2022-10-22T07:08:39;100602.16;;;22.46;47.75
56518;BME280;42419;48.760;2.322;2022-10-22T07:13:36;100619.19;;;22.45;47.83
56518;BME280;42419;48.760;2.322;2022-10-22T07:16:02;100614.78;;;22.44;48.22
56518;BME280;42419;48.760;2.322;2022-10-22T07:18:29;100616.38;;;22.48;48.18
56518;BME280;42419;48.760;2.322;2022-10-22T07:20:54;100626.94;;;22.51;48.30
56518;BME280;42419;48.760;2.322;2022-10-22T07:23:20;100638.47;;;22.53;47.96
56518;BME280;42419;48.760;2.322;2022-10-22T07:25:45;100636.72;;;22.52;46.51
56518;BME280;42419;48.760;2.322;2022-10-22T07:28:10;100640.28;;;22.53;46.38
56518;BME280;42419;48.760;2.322;2022-10-22T07:30:37;100624.25;;;22.51;45.34
56518;BME280;42419;48.760;2.322;2022-10-22T07:33:02;100630.22;;;22.58;45.63
56518;BME280;42419;48.760;2.322;2022-10-22T07:35:28;100631.34;;;22.52;45.46
56518;BME280;42419;48.760;2.322;2022-10-22T07:37:53;100640.84;;;22.59;44.77
56518;BME280;42419;48.760;2.322;2022-10-22T07:40:18;100636.28;;;22.61;44.75
56518;BME280;42419;48.760;2.322;2022-10-22T07:42:44;100642.41;;;22.63;44.45
56518;BME280;42419;48.760;2.322;2022-10-22T07:45:09;100644.34;;;22.61;44.46
56518;BME280;42419;48.760;2.322;2022-10-22T07:47:35;100638.97;;;22.61;44.25
56518;BME280;42419;48.760;2.322;2022-10-22T07:50:00;100658.16;;;22.71;44.17
56518;BME280;42419;48.760;2.322;2022-10-22T07:52:26;100644.34;;;22.61;44.08
56518;BME280;42419;48.760;2.322;2022-10-22T07:54:51;100640.19;;;22.71;43.68
56518;BME280;42419;48.760;2.322;2022-10-22T07:57:16;100650.78;;;22.92;43.57
56518;BME280;42419;48.760;2.322;2022-10-22T07:59:42;100655.19;;;23.10;43.59
56518;BME280;42419;48.760;2.322;2022-10-22T08:02:08;100666.53;;;23.32;42.89
56518;BME280;42419;48.760;2.322;2022-10-22T08:04:34;100669.97;;;23.51;42.51
56518;BME280;42419;48.760;2.322;2022-10-22T08:07:00;100667.28;;;23.67;42.10
56518;BME280;42419;48.760;2.322;2022-10-22T08:09:25;100682.47;;;23.84;42.44
56518;BME280;42419;48.760;2.322;2022-10-22T08:11:50;100685.53;;;23.93;42.11
56518;BME280;42419;48.760;2.322;2022-10-22T08:14:15;100673.31;;;24.03;42.21
56518;BME280;42419;48.760;2.322;2022-10-22T08:16:41;100672.59;;;24.15;42.31
56518;BME280;42419;48.760;2.322;2022-10-22T08:19:06;100663.56;;;24.16;41.80
56518;BME280;42419;48.760;2.322;2022-10-22T08:21:32;100672.66;;;24.30;42.12
56518;BME280;42419;48.760;2.322;2022-10-22T08:23:57;100677.44;;;24.40;41.73
56518;BME280;42419;48.760;2.322;2022-10-22T08:26:22;100667.34;;;24.44;41.54
56518;BME280;42419;48.760;2.322;2022-10-22T08:28:48;100676.53;;;24.55;41.27
56518;BME280;42419;48.760;2.322;2022-10-22T08:31:13;100674.25;;;24.64;41.38
56518;BME280;42419;48.760;2.322;2022-10-22T08:33:38;100658.09;;;24.64;41.54
56518;BME280;42419;48.760;2.322;2022-10-22T08:36:04;100659.69;;;24.68;41.25
56518;BME280;42419;48.760;2.322;2022-10-22T08:38:30;100642.53;;;24.69;41.34
56518;BME280;42419;48.760;2.322;2022-10-22T08:41:15;100672.50;;;24.92;40.97
56518;BME280;42419;48.760;2.322;2022-10-22T08:47:13;100677.25;;;25.03;40.84
56518;BME280;42419;48.760;2.322;2022-10-22T08:49:43;100664.53;;;25.05;41.05
56518;BME280;42419;48.760;2.322;2022-10-22T08:52:13;100680.19;;;25.14;40.59
56518;BME280;42419;48.760;2.322;2022-10-22T09:00:15;100681.34;;;25.24;40.74
56518;BME280;42419;48.760;2.322;2022-10-22T09:05:40;100685.09;;;25.36;40.84
56518;BME280;42419;48.760;2.322;2022-10-22T09:08:13;100675.19;;;25.36;40.88
56518;BME280;42419;48.760;2.322;2022-10-22T09:10:45;100681.06;;;25.43;41.27
56518;BME280;42419;48.760;2.322;2022-10-22T09:13:15;100682.59;;;25.47;40.54
56518;BME280;42419;48.760;2.322;2022-10-22T09:15:43;100666.53;;;25.45;41.03
56518;BME280;42419;48.760;2.322;2022-10-22T09:18:29;100677.69;;;25.54;40.86
56518;BME280;42419;48.760;2.322;2022-10-22T09:24:02;100675.56;;;25.59;40.91
56518;BME280;42419;48.760;2.322;2022-10-22T09:26:25;100684.44;;;25.61;40.67
56518;BME280;42419;48.760;2.322;2022-10-22T09:28:52;100677.09;;;25.63;40.11
56518;BME280;42419;48.760;2.322;2022-10-22T09:31:17;100678.16;;;25.60;39.96
56518;BME280;42419;48.760;2.322;2022-10-22T09:33:45;100696.38;;;25.71;39.85
56518;BME280;42419;48.760;2.322;2022-10-22T09:36:15;100672.78;;;25.60;39.93
56518;BME280;42419;48.760;2.322;2022-10-22T09:38:48;100686.63;;;25.68;39.72
56518;BME280;42419;48.760;2.322;2022-10-22T09:41:14;100664.69;;;25.60;40.03
56518;BME280;42419;48.760;2.322;2022-10-22T09:43:39;100691.06;;;25.69;40.27
56518;BME280;42419;48.760;2.322;2022-10-22T09:46:07;100676.44;;;25.59;39.85
56518;BME280;42419;48.760;2.322;2022-10-22T09:48:40;100669.78;;;25.51;39.78
56518;BME280;42419;48.760;2.322;2022-10-22T09:51:20;100675.94;;;25.53;39.51
56518;BME280;42419;48.760;2.322;2022-10-22T09:54:16;100628.59;;;25.20;39.55
56518;BME280;42419;48.760;2.322;2022-10-22T09:56:49;100674.22;;;25.37;40.22
56518;BME280;42419;48.760;2.322;2022-10-22T09:59:16;100677.78;;;25.38;40.13
56518;BME280;42419;48.760;2.322;2022-10-22T10:01:42;100679.72;;;25.36;40.21
56518;BME280;42419;48.760;2.322;2022-10-22T10:04:13;100680.78;;;25.33;40.20
56518;BME280;42419;48.760;2.322;2022-10-22T10:06:41;100679.03;;;25.32;40.67
56518;BME280;42419;48.760;2.322;2022-10-22T10:09:19;100684.63;;;25.29;40.11
56518;BME280;42419;48.760;2.322;2022-10-22T10:12:30;100683.09;;;25.25;40.28
56518;BME280;42419;48.760;2.322;2022-10-22T10:23:56;100677.78;;;25.24;40.31
56518;BME280;42419;48.760;2.322;2022-10-22T10:31:37;100688.72;;;25.07;42.52
56518;BME280;42419;48.760;2.322;2022-10-22T10:34:27;100702.25;;;25.05;43.89
56518;BME280;42419;48.760;2.322;2022-10-22T10:39:44;100704.28;;;25.01;43.56
56518;BME280;42419;48.760;2.322;2022-10-22T10:42:32;100703.59;;;24.98;44.59
56518;BME280;42419;48.760;2.322;2022-10-22T10:45:31;100704.56;;;24.97;44.35
56518;BME280;42419;48.760;2.322;2022-10-22T10:53:44;100703.97;;;24.92;44.47
56518;BME280;42419;48.760;2.322;2022-10-22T11:01:21;100708.94;;;24.84;45.32
56518;BME280;42419;48.760;2.322;2022-10-22T11:06:56;100692.66;;;24.71;45.19
56518;BME280;42419;48.760;2.322;2022-10-22T11:09:23;100705.75;;;24.77;45.10
56518;BME280;42419;48.760;2.322;2022-10-22T11:11:54;100706.72;;;24.76;44.28
56518;BME280;42419;48.760;2.322;2022-10-22T11:14:25;100722.00;;;24.76;44.70
56518;BME280;42419;48.760;2.322;2022-10-22T11:17:13;100712.94;;;24.77;44.01
56518;BME280;42419;48.760;2.322;2022-10-22T11:20:15;100712.94;;;24.77;45.24
56518;BME280;42419;48.760;2.322;2022-10-22T11:23:07;100700.63;;;24.73;44.67
56518;BME280;42419;48.760;2.322;2022-10-22T11:25:37;100701.44;;;24.75;45.00
56518;BME280;42419;48.760;2.322;2022-10-22T11:28:16;100707.75;;;24.74;45.27
56518;BME280;42419;48.760;2.322;2022-10-22T11:30:48;100698.72;;;24.75;44.42
56518;BME280;42419;48.760;2.322;2022-10-22T11:33:21;100696.78;;;24.77;44.69
56518;BME280;42419;48.760;2.322;2022-10-22T11:35:49;100692.41;;;24.76;44.56
56518;BME280;42419;48.760;2.322;2022-10-22T11:38:17;100686.03;;;24.77;44.66
56518;BME280;42419;48.760;2.322;2022-10-22T11:40:53;100680.63;;;24.77;44.33
56518;BME280;42419;48.760;2.322;2022-10-22T11:43:30;100683.34;;;24.77;44.10
56518;BME280;42419;48.760;2.322;2022-10-22T11:48:39;100679.97;;;24.73;44.21
56518;BME280;42419;48.760;2.322;2022-10-22T11:53:56;100683.91;;;24.68;43.81
56518;BME280;42419;48.760;2.322;2022-10-22T11:56:24;100675.44;;;24.74;43.17
56518;BME280;42419;48.760;2.322;2022-10-22T11:58:50;100676.31;;;24.74;43.44
56518;BME280;42419;48.760;2.322;2022-10-22T12:01:21;100683.34;;;24.77;43.19
56518;BME280;42419;48.760;2.322;2022-10-22T12:06:28;100676.03;;;24.79;43.61
56518;BME280;42419;48.760;2.322;2022-10-22T12:11:19;100664.19;;;24.81;43.64
56518;BME280;42419;48.760;2.322;2022-10-22T12:14:23;100664.31;;;24.80;42.78
56518;BME280;42419;48.760;2.322;2022-10-22T12:17:13;100668.03;;;24.77;42.18
56518;BME280;42419;48.760;2.322;2022-10-22T12:19:42;100657.75;;;24.70;43.47
56518;BME280;42419;48.760;2.322;2022-10-22T12:22:20;100673.72;;;24.73;42.35
56518;BME280;42419;48.760;2.322;2022-10-22T12:24:51;100670.44;;;24.68;42.41
56518;BME280;42419;48.760;2.322;2022-10-22T12:27:33;100662.81;;;24.60;42.72
56518;BME280;42419;48.760;2.322;2022-10-22T12:30:00;100653.97;;;24.58;42.39
56518;BME280;42419;48.760;2.322;2022-10-22T12:32:35;100651.56;;;24.53;42.64
56518;BME280;42419;48.760;2.322;2022-10-22T12:35:07;100651.88;;;24.47;42.09
56518;BME280;42419;48.760;2.322;2022-10-22T12:37:35;100643.00;;;24.45;42.69
56518;BME280;42419;48.760;2.322;2022-10-22T12:40:02;100639.38;;;24.46;43.42
56518;BME280;42419;48.760;2.322;2022-10-22T12:42:27;100641.06;;;24.49;43.20
56518;BME280;42419;48.760;2.322;2022-10-22T12:44:55;100668.03;;;24.47;43.34
56518;BME280;42419;48.760;2.322;2022-10-22T12:47:21;100649.25;;;24.46;42.51
56518;BME280;42419;48.760;2.322;2022-10-22T12:49:49;100611.84;;;24.27;42.77
56518;BME280;42419;48.760;2.322;2022-10-22T12:52:20;100644.88;;;24.45;41.86
56518;BME280;42419;48.760;2.322;2022-10-22T12:54:49;100627.16;;;24.41;42.59
56518;BME280;42419;48.760;2.322;2022-10-22T12:57:17;100642.69;;;24.51;42.97
56518;BME280;42419;48.760;2.322;2022-10-22T12:59:47;100629.16;;;24.53;42.18
56518;BME280;42419;48.760;2.322;2022-10-22T13:02:21;100617.50;;;24.52;42.22
56518;BME280;42419;48.760;2.322;2022-10-22T13:05:23;100626.34;;;24.54;41.77
56518;BME280;42419;48.760;2.322;2022-10-22T13:08:10;100622.69;;;24.55;42.38
56518;BME280;42419;48.760;2.322;2022-10-22T13:10:39;100620.00;;;24.55;42.91
56518;BME280;42419;48.760;2.322;2022-10-22T13:13:05;100621.06;;;24.53;42.70
56518;BME280;42419;48.760;2.322;2022-10-22T13:18:02;100614.91;;;24.51;43.04
56518;BME280;42419;48.760;2.322;2022-10-22T13:20:29;100621.06;;;24.53;43.15
56518;BME280;42419;48.760;2.322;2022-10-22T13:23:04;100613.88;;;24.53;43.42
56518;BME280;42419;48.760;2.322;2022-10-22T13:25:34;100612.13;;;24.52;43.13
56518;BME280;42419;48.760;2.322;2022-10-22T13:28:19;100601.38;;;24.52;43.05
56518;BME280;42419;48.760;2.322;2022-10-22T13:30:53;100611.19;;;24.53;42.42
56518;BME280;42419;48.760;2.322;2022-10-22T13:33:35;100607.63;;;24.53;42.51
56518;BME280;42419;48.760;2.322;2022-10-22T13:36:01;100608.66;;;24.50;42.87
56518;BME280;42419;48.760;2.322;2022-10-22T13:38:28;100604.25;;;24.49;42.50
56518;BME280;42419;48.760;2.322;2022-10-22T13:40:54;100599.81;;;24.48;42.86
56518;BME280;42419;48.760;2.322;2022-10-22T13:43:21;100602.56;;;24.47;42.49
56518;BME280;42419;48.760;2.322;2022-10-22T13:45:48;100593.63;;;24.46;42.00
56518;BME280;42419;48.760;2.322;2022-10-22T13:48:18;100591.03;;;24.45;42.47
56518;BME280;42419;48.760;2.322;2022-10-22T13:50:48;100580.53;;;24.40;42.40
56518;BME280;42419;48.760;2.322;2022-10-22T13:53:17;100582.38;;;24.40;42.47
56518;BME280;42419;48.760;2.322;2022-10-22T13:55:43;100585.53;;;24.46;42.12
56518;BME280;42419;48.760;2.322;2022-10-22T13:58:14;100584.66;;;24.46;42.35
56518;BME280;42419;48.760;2.322;2022-10-22T14:00:44;100582.09;;;24.44;42.18
56518;BME280;42419;48.760;2.322;2022-10-22T14:03:12;100583.03;;;24.43;42.05
56518;BME280;42419;48.760;2.322;2022-10-22T14:05:39;100582.09;;;24.44;42.30
56518;BME280;42419;48.760;2.322;2022-10-22T14:08:10;100569.66;;;24.42;42.51
56518;BME280;42419;48.760;2.322;2022-10-22T14:10:36;100569.59;;;24.43;42.19
56518;BME280;42419;48.760;2.322;2022-10-22T14:13:04;100577.66;;;24.43;42.29
56518;BME280;42419;48.760;2.322;2022-10-22T14:15:29;100570.53;;;24.42;42.56
56518;BME280;42419;48.760;2.322;2022-10-22T14:17:56;100574.97;;;24.43;43.01
56518;BME280;42419;48.760;2.322;2022-10-22T14:20:25;100570.44;;;24.44;42.62